Pagrindinis puslapis
METAR-TAF:

METAR-TAF

Oro uostai :

Manila, Filipinai

platuma: 14-31N, ilguma: 121-00E, Aukštis: 14 m

Dabartinis oras

Ataskaita buvo paskelbta 13 minutes, ne 20:00 UTC
Ramus vėjas
Temperatūra 24°C
Drėgmė 83%
Slėgis 1010 hPa
Matomumas 10 km arba daugiau
Mažai debesys ne aukštis 2500 ft

METAR: RPLL 252000Z 00000KT 9999 FEW025 24/21 Q1010 NOSIG RMK A2983

Laikas: 04:13 (20:13 UTC)

Prognozė

Ataskaita buvo paskelbta 3 valandos ir 13 minutes, ne 17:00 UTC
Prognozė galioja nuo 25 metu 18 UTC su 26 metu 24 UTC
Vėjas 8 kt iš Rytų
Matomumas 10 km arba daugiau
Mažai debesys ne aukštis 2500 ft
Išsisklaidę debesys ne aukštis 10000 ft
Laikinai
nuo 25 metu 18 UTC su 25 metu 24 UTC
Išsisklaidę debesys ne aukštis 2300 ft
Su prošvaistėmis ne aukštis 10000 ft
Laikinai
nuo 26 metu 03 UTC su 26 metu 09 UTC
Vėjas 14 kt iš Rytų/Šiaurės Rytų
Mažai debesys ne aukštis 2300 ft
Su prošvaistėmis ne aukštis 10000 ft

TAF: RPLL 251700Z 2518/2624 08008KT 9999 FEW025 SCT100 TX31/2606Z TN25/2521Z TEMPO 2518/2524 SCT023 BKN100 TEMPO 2603/2609 06014KT FEW023 BKN100

Orai ataskaitas ir orų prognozės (METAR, TAF).

turimą stotys yra geltonos ir raudonos taškus žemėlapyje.

Perkelti pele per norėdami pamatyti stoties vardą.

Tada spustelėkite, norėdami matyti oro stebėjimo ir prognozės.

Norėdami pakeisti žemėlapį: spustelėkite ant žalios mygtukų su juodo kryžiaus žemyn,; žalią mygtuką su brūkšneliu, jei norite nutolinti; arba žalių rodyklių gretimoms žemėlapius.


METAR-TAF: